Terminal Aerodrome Forecast
Issued by NWS Bismarck, ND

Home | Current Version | Previous Version | Text Only | Print | Product List | Glossary On
Versions: 1 2 3 4 5 6 7 8 9 10 11 12 13 14 15 16 17 18 19
000
FTUS43 KBIS 231700
TAFISN
TAF
KISN 231734Z 2318/2418 06011KT P6SM -RA BKN010 OVC015
      TEMPO 2318/2322 OVC008
     FM232200 04015G25KT 5SM -SHRA BR OVC006
     FM240700 02015KT 5SM -SHRA OVC004
     FM241200 34010KT P6SM -SHRA OVC008=

USA.gov is the U.S. government's official web portal to all federal, state and local government web resources and services.